Time;durP1;ratioP1;P1;durP2;ratioP2;P2;SDS_P1;SDS_P2;PMS_P1;PMS_P2;Temp;Humidity;BMP_temperature;BMP_pressure;BME280_temperature;BME280_humidity;BME280_pressure;Samples;Min_cycle;Max_cycle;Signal;HPM_P1;HPM_P2
2021/06/13 00:01:54;;;;;;;6.63;3.67;;;25.10;44.50;;;;;;4989243;28;20196;-70
2021/06/13 00:04:23;;;;;;;4.53;3.87;;;25.10;44.50;;;;;;4991472;28;20334;-69
2021/06/13 00:06:54;;;;;;;4.47;3.57;;;25.10;44.60;;;;;;4975545;28;20622;-70
2021/06/13 00:09:24;;;;;;;6.43;4.30;;;25.00;44.50;;;;;;4990281;28;20223;-70
2021/06/13 00:11:56;;;;;;;5.00;3.90;;;25.10;44.60;;;;;;4994255;28;20196;-70
2021/06/13 00:14:31;;;;;;;5.53;4.20;;;25.10;44.70;;;;;;4974809;28;20219;-71
2021/06/13 00:16:58;;;;;;;13.20;4.30;;;25.00;44.60;;;;;;4977415;28;20185;-70
2021/06/13 00:19:31;;;;;;;6.47;4.43;;;25.00;44.60;;;;;;4975238;28;20648;-70
2021/06/13 00:22:02;;;;;;;5.23;3.43;;;25.00;44.70;;;;;;4990365;28;20730;-71
2021/06/13 00:24:30;;;;;;;4.97;4.27;;;25.00;44.60;;;;;;4987205;28;20247;-70
2021/06/13 00:27:04;;;;;;;4.83;4.10;;;25.00;44.70;;;;;;4978841;28;20217;-70
2021/06/13 00:29:32;;;;;;;5.50;4.53;;;25.00;44.70;;;;;;4988700;28;20201;-71
2021/06/13 00:32:01;;;;;;;7.60;4.07;;;25.00;44.70;;;;;;4991529;28;20649;-70
2021/06/13 00:34:34;;;;;;;4.90;4.17;;;25.00;44.80;;;;;;4995878;28;20610;-71
2021/06/13 00:37:03;;;;;;;4.60;4.03;;;25.00;44.80;;;;;;4978075;28;20230;-71
2021/06/13 00:39:30;;;;;;;4.37;3.80;;;25.00;44.70;;;;;;4973366;28;20243;-70
2021/06/13 00:42:00;;;;;;;5.20;3.80;;;25.00;45.40;;;;;;4989648;28;20211;-70
2021/06/13 00:44:31;;;;;;;4.93;4.10;;;24.90;44.80;;;;;;4990940;28;20263;-70
2021/06/13 00:46:58;;;;;;;4.67;3.97;;;25.00;44.80;;;;;;4987133;28;20212;-71
2021/06/13 00:49:29;;;;;;;3.90;3.47;;;25.00;44.90;;;;;;4990131;28;20298;-70
2021/06/13 00:51:59;;;;;;;4.63;4.07;;;25.00;45.00;;;;;;4956816;28;20315;-70
2021/06/13 00:54:34;;;;;;;3.80;3.27;;;24.90;44.90;;;;;;4989215;28;20212;-70
2021/06/13 00:57:07;;;;;;;6.93;3.80;;;24.90;44.90;;;;;;4976275;28;20200;-70
2021/06/13 00:59:37;;;;;;;4.33;3.23;;;24.90;44.90;;;;;;4990505;28;23874;-70
2021/06/13 01:02:06;;;;;;;5.57;3.83;;;24.90;44.90;;;;;;4990405;28;20188;-71
2021/06/13 01:04:41;;;;;;;6.17;3.77;;;24.90;44.90;;;;;;4991419;28;20203;-71
2021/06/13 01:07:46;;;;;;;7.63;3.70;;;24.90;45.00;;;;;;4988400;28;20426;-70
2021/06/13 01:10:51;;;;;;;4.13;3.47;;;24.90;45.10;;;;;;4986438;28;20211;-70
2021/06/13 01:13:51;;;;;;;4.90;3.30;;;24.90;45.00;;;;;;4991071;28;20204;-70
2021/06/13 01:16:49;;;;;;;5.80;3.43;;;24.90;45.10;;;;;;4988279;28;20224;-70
2021/06/13 01:19:25;;;;;;;5.63;3.27;;;24.90;45.20;;;;;;4982897;28;20203;-70
2021/06/13 01:22:14;;;;;;;6.23;3.73;;;24.90;45.30;;;;;;4988750;28;20308;-70
2021/06/13 01:25:09;;;;;;;5.30;3.63;;;24.90;45.30;;;;;;4970812;28;20712;-70
2021/06/13 01:28:22;;;;;;;6.67;4.00;;;24.80;45.30;;;;;;4992380;28;20212;-70
2021/06/13 01:30:57;;;;;;;5.07;3.80;;;24.80;45.20;;;;;;4979149;28;20213;-71
2021/06/13 01:33:28;;;;;;;5.70;3.90;;;24.80;45.20;;;;;;4984954;28;20648;-70
2021/06/13 01:36:00;;;;;;;5.63;3.83;;;24.80;45.20;;;;;;4988359;28;20220;-70
2021/06/13 01:38:30;;;;;;;6.20;4.00;;;24.80;45.10;;;;;;4973787;28;20209;-70
2021/06/13 01:41:05;;;;;;;5.63;3.80;;;24.80;45.10;;;;;;4973982;28;20200;-70
2021/06/13 01:43:38;;;;;;;5.87;3.77;;;24.80;45.10;;;;;;4973267;28;20196;-71
2021/06/13 01:46:10;;;;;;;6.30;4.07;;;24.80;45.00;;;;;;4982779;28;20622;-70
2021/06/13 01:48:41;;;;;;;5.67;3.93;;;24.80;45.00;;;;;;4974308;28;20200;-70
2021/06/13 01:51:09;;;;;;;4.77;3.70;;;24.80;45.00;;;;;;4980420;28;20193;-70
2021/06/13 01:53:43;;;;;;;4.60;3.53;;;24.80;44.90;;;;;;4990395;28;20224;-71
2021/06/13 01:56:28;;;;;;;6.80;4.23;;;24.70;44.90;;;;;;4986328;28;20788;-70
2021/06/13 01:59:00;;;;;;;5.87;3.83;;;24.70;44.90;;;;;;4998302;28;20195;-70
2021/06/13 02:01:42;;;;;;;5.30;3.60;;;24.70;44.90;;;;;;4978468;28;20695;-70
2021/06/13 02:04:12;;;;;;;5.57;4.00;;;24.70;44.90;;;;;;4974210;28;20192;-70
2021/06/13 02:06:46;;;;;;;6.17;4.20;;;24.70;44.90;;;;;;4977464;28;20621;-70
2021/06/13 02:09:22;;;;;;;6.47;4.10;;;24.70;44.90;;;;;;4978119;28;20231;-70
2021/06/13 02:11:56;;;;;;;5.30;3.50;;;24.70;44.90;;;;;;4990249;28;20200;-70
2021/06/13 02:14:30;;;;;;;6.33;4.03;;;24.70;44.90;;;;;;4976300;28;20276;-70
2021/06/13 02:17:00;;;;;;;5.77;3.83;;;24.70;44.90;;;;;;4991343;28;20204;-70
2021/06/13 02:19:37;;;;;;;5.63;3.97;;;24.70;44.90;;;;;;4993629;28;20373;-70
2021/06/13 02:22:08;;;;;;;6.70;4.00;;;24.60;44.80;;;;;;4995655;28;20207;-70
2021/06/13 02:24:38;;;;;;;6.07;4.03;;;24.70;44.90;;;;;;4980499;28;20376;-70
2021/06/13 02:27:06;;;;;;;6.63;3.97;;;24.60;44.80;;;;;;4990862;28;20220;-70
2021/06/13 02:29:39;;;;;;;5.80;4.10;;;24.70;44.90;;;;;;4984411;28;20774;-70
2021/06/13 02:32:12;;;;;;;5.67;3.87;;;24.60;44.90;;;;;;4991328;28;20203;-70
2021/06/13 02:34:45;;;;;;;5.80;4.00;;;24.60;44.90;;;;;;4991401;28;20207;-70
2021/06/13 02:37:14;;;;;;;5.97;4.33;;;24.70;44.90;;;;;;4992192;28;20236;-70
2021/06/13 02:39:45;;;;;;;5.63;3.70;;;24.60;45.00;;;;;;4975898;28;20204;-70
2021/06/13 02:42:13;;;;;;;6.37;4.17;;;24.60;45.00;;;;;;5001326;28;20204;-70
2021/06/13 02:44:45;;;;;;;5.20;3.90;;;24.60;45.00;;;;;;4975947;28;20563;-70
2021/06/13 02:47:17;;;;;;;5.93;4.07;;;24.60;45.00;;;;;;4984506;28;20200;-70
2021/06/13 02:49:47;;;;;;;6.47;4.20;;;24.60;45.60;;;;;;4992524;28;20192;-70
2021/06/13 02:52:41;;;;;;;4.90;3.47;;;24.60;44.90;;;;;;4998516;28;20216;-70
2021/06/13 02:55:20;;;;;;;4.97;3.67;;;24.60;44.90;;;;;;5001710;28;20281;-70
2021/06/13 02:58:03;;;;;;;4.90;3.70;;;24.60;45.00;;;;;;4983114;28;20214;-71
2021/06/13 03:00:34;;;;;;;5.17;4.10;;;24.60;45.00;;;;;;4992911;28;20199;-70
2021/06/13 03:03:08;;;;;;;6.43;4.30;;;24.60;45.00;;;;;;4997010;28;20211;-70
2021/06/13 03:05:36;;;;;;;7.97;4.00;;;24.60;45.00;;;;;;4998524;28;20227;-70
2021/06/13 03:08:06;;;;;;;8.00;4.07;;;24.50;44.90;;;;;;5000477;28;20532;-69
2021/06/13 03:10:36;;;;;;;6.80;4.00;;;24.60;45.00;;;;;;5002530;28;20216;-70
2021/06/13 03:13:03;;;;;;;4.93;3.93;;;24.50;45.00;;;;;;4998800;28;20533;-70
2021/06/13 03:15:35;;;;;;;7.20;4.47;;;24.60;45.00;;;;;;5003453;28;20208;-70
2021/06/13 03:18:06;;;;;;;5.30;3.60;;;24.50;45.00;;;;;;4992972;28;20636;-70
2021/06/13 03:20:39;;;;;;;6.83;4.40;;;24.50;45.00;;;;;;4972135;28;20231;-70
2021/06/13 03:23:09;;;;;;;5.03;4.00;;;24.50;45.00;;;;;;5005380;28;20243;-71
2021/06/13 03:25:37;;;;;;;4.70;3.67;;;24.50;45.00;;;;;;5003685;28;20642;-69
2021/06/13 03:28:11;;;;;;;6.97;4.37;;;24.50;45.10;;;;;;4993051;28;20661;-69
2021/06/13 03:30:41;;;;;;;7.00;3.77;;;24.50;45.00;;;;;;4977616;28;20196;-70
2021/06/13 03:33:12;;;;;;;7.57;4.40;;;24.50;45.10;;;;;;4993910;28;20282;-71
2021/06/13 03:35:41;;;;;;;8.33;4.23;;;24.50;45.10;;;;;;4988605;28;20310;-70
2021/06/13 03:38:13;;;;;;;6.13;3.80;;;24.40;45.00;;;;;;5002204;28;20649;-69
2021/06/13 03:40:44;;;;;;;5.40;4.17;;;24.40;45.00;;;;;;4996648;28;20200;-69
2021/06/13 03:43:18;;;;;;;6.67;4.17;;;24.40;45.10;;;;;;4970158;28;20201;-70
2021/06/13 03:45:53;;;;;;;6.77;4.23;;;24.40;45.00;;;;;;4996548;28;20212;-70
2021/06/13 03:48:25;;;;;;;5.93;4.23;;;24.40;45.00;;;;;;4992114;28;20211;-70
2021/06/13 03:50:54;;;;;;;5.90;4.30;;;24.40;45.00;;;;;;4993449;28;20237;-70
2021/06/13 03:53:24;;;;;;;6.13;4.40;;;24.40;45.00;;;;;;4993457;28;20221;-70
2021/06/13 03:55:53;;;;;;;6.73;4.10;;;24.40;45.00;;;;;;4991777;28;20825;-68
2021/06/13 03:58:29;;;;;;;6.93;4.10;;;24.40;45.00;;;;;;4979536;28;20392;-68
2021/06/13 04:01:00;;;;;;;6.43;4.77;;;24.40;45.00;;;;;;4984036;28;20286;-68
2021/06/13 04:03:30;;;;;;;5.13;3.77;;;24.40;45.00;;;;;;4965663;28;20228;-68
2021/06/13 04:06:08;;;;;;;5.07;3.60;;;24.40;45.00;;;;;;4990570;28;20551;-70
2021/06/13 04:08:39;;;;;;;6.40;4.20;;;24.40;45.00;;;;;;4993833;28;20612;-71
2021/06/13 04:11:16;;;;;;;5.43;4.17;;;24.40;45.00;;;;;;4986972;28;20210;-69
2021/06/13 04:13:47;;;;;;;7.00;4.43;;;24.40;45.50;;;;;;4990667;28;20200;-69
2021/06/13 04:16:16;;;;;;;5.53;3.40;;;24.40;44.90;;;;;;4990179;28;20220;-69
2021/06/13 04:18:49;;;;;;;6.57;4.30;;;24.40;44.80;;;;;;4991206;28;20698;-69
2021/06/13 04:21:42;;;;;;;7.13;4.10;;;24.40;44.80;;;;;;4968206;28;20218;-69
2021/06/13 04:24:17;;;;;;;4.77;3.73;;;24.40;44.80;;;;;;4990955;28;20235;-70
2021/06/13 04:26:48;;;;;;;7.43;4.17;;;24.40;44.80;;;;;;4974746;28;20214;-70
2021/06/13 04:29:21;;;;;;;5.90;4.27;;;24.30;44.70;;;;;;4990617;28;20223;-70
2021/06/13 04:31:52;;;;;;;6.77;4.50;;;24.40;44.80;;;;;;4991486;28;20211;-70
2021/06/13 04:34:21;;;;;;;6.20;4.37;;;24.30;44.80;;;;;;4999658;28;20207;-70
2021/06/13 04:36:53;;;;;;;6.37;4.10;;;24.40;44.80;;;;;;4993260;28;20230;-69
2021/06/13 04:39:24;;;;;;;7.57;4.60;;;24.30;44.70;;;;;;4985308;28;20236;-69
2021/06/13 04:41:55;;;;;;;10.67;4.63;;;24.30;44.80;;;;;;4991669;28;20620;-69
2021/06/13 04:44:27;;;;;;;10.80;4.80;;;24.30;44.80;;;;;;4996098;28;20677;-70
2021/06/13 04:46:56;;;;;;;7.50;4.73;;;24.30;44.80;;;;;;4991042;28;20681;-69
2021/06/13 04:49:51;;;;;;;8.60;4.20;;;24.30;44.80;;;;;;4989568;28;20204;-69
2021/06/13 04:52:26;;;;;;;6.03;4.20;;;24.30;44.80;;;;;;4973220;28;20739;-70
2021/06/13 04:54:59;;;;;;;6.73;4.67;;;24.30;44.80;;;;;;4977187;28;20215;-70
2021/06/13 04:57:43;;;;;;;8.00;4.87;;;24.30;44.80;;;;;;4988883;28;20196;-70
2021/06/13 05:00:14;;;;;;;7.00;4.90;;;24.30;44.80;;;;;;4975801;28;20219;-70
2021/06/13 05:02:45;;;;;;;6.23;4.80;;;24.30;44.90;;;;;;4979742;28;20203;-69
2021/06/13 05:05:16;;;;;;;9.00;5.20;;;24.20;44.60;;;;;;4977450;28;20615;-69
2021/06/13 05:07:44;;;;;;;6.50;4.67;;;24.20;44.80;;;;;;5002918;28;20247;-69
2021/06/13 05:10:15;;;;;;;7.63;4.97;;;24.20;44.80;;;;;;4982974;28;20192;-70
2021/06/13 05:12:51;;;;;;;6.23;5.00;;;24.20;44.90;;;;;;4975211;28;20207;-71
2021/06/13 05:15:21;;;;;;;6.73;5.37;;;24.20;44.80;;;;;;4989126;28;20660;-70
2021/06/13 05:17:51;;;;;;;8.87;4.33;;;24.20;45.00;;;;;;4989665;28;20212;-70
2021/06/13 05:20:21;;;;;;;7.70;5.20;;;24.20;45.00;;;;;;4976646;28;20219;-69
2021/06/13 05:23:04;;;;;;;8.53;5.30;;;24.20;45.10;;;;;;4999517;28;20206;-69
2021/06/13 05:25:36;;;;;;;7.20;4.97;;;24.20;45.00;;;;;;4955059;28;20197;-70
2021/06/13 05:28:07;;;;;;;6.30;4.90;;;24.10;45.00;;;;;;4954768;28;20205;-71
2021/06/13 05:30:37;;;;;;;7.73;4.90;;;24.20;45.10;;;;;;4968393;28;20242;-71
2021/06/13 05:33:07;;;;;;;6.00;4.20;;;24.20;45.20;;;;;;4947727;28;20714;-71
2021/06/13 05:35:37;;;;;;;7.23;4.37;;;24.20;45.20;;;;;;4971429;28;20721;-70
2021/06/13 05:38:06;;;;;;;6.63;4.80;;;24.20;45.20;;;;;;4957994;28;20208;-69
2021/06/13 05:40:35;;;;;;;6.63;4.70;;;24.20;45.20;;;;;;4958469;28;20200;-70
2021/06/13 05:43:10;;;;;;;8.23;5.20;;;24.20;45.30;;;;;;4972354;28;20227;-70
2021/06/13 05:45:40;;;;;;;11.10;4.90;;;24.20;45.40;;;;;;4973089;28;20217;-69
2021/06/13 05:48:11;;;;;;;6.50;4.80;;;24.20;45.40;;;;;;4971750;28;20205;-69
2021/06/13 05:50:39;;;;;;;6.10;4.73;;;24.20;45.40;;;;;;4973117;28;20279;-69
2021/06/13 05:53:11;;;;;;;6.53;4.40;;;24.20;45.40;;;;;;4971767;28;20271;-70
2021/06/13 05:55:39;;;;;;;22.63;8.03;;;24.20;45.40;;;;;;4971136;28;20797;-68
2021/06/13 05:58:08;;;;;;;32.50;11.23;;;24.20;45.60;;;;;;4969402;28;20208;-68
2021/06/13 06:00:38;;;;;;;35.87;10.70;;;24.20;45.60;;;;;;4971340;28;20197;-68
2021/06/13 06:03:09;;;;;;;29.87;9.60;;;24.20;45.60;;;;;;4958741;28;20267;-69
2021/06/13 06:05:39;;;;;;;29.10;8.87;;;24.20;45.60;;;;;;4972496;28;20689;-68
2021/06/13 06:08:09;;;;;;;26.77;8.43;;;24.30;45.60;;;;;;4970700;28;20197;-68
2021/06/13 06:10:40;;;;;;;20.17;7.40;;;24.20;45.50;;;;;;4976153;28;20768;-68
2021/06/13 06:13:08;;;;;;;14.17;6.20;;;24.20;45.50;;;;;;4967253;28;20197;-68
2021/06/13 06:15:45;;;;;;;16.83;6.53;;;24.20;45.70;;;;;;4965994;28;20843;-69
2021/06/13 06:18:13;;;;;;;12.03;5.90;;;24.20;45.70;;;;;;4966540;28;20686;-69
2021/06/13 06:20:45;;;;;;;13.97;6.00;;;24.20;45.50;;;;;;4968073;28;20197;-68
2021/06/13 06:23:15;;;;;;;10.50;5.83;;;24.20;45.40;;;;;;4970708;28;20573;-68
2021/06/13 06:25:43;;;;;;;11.07;5.80;;;24.30;45.50;;;;;;4993198;28;20255;-70
2021/06/13 06:28:14;;;;;;;8.83;5.70;;;24.30;45.50;;;;;;5002541;28;20209;-70
2021/06/13 06:30:44;;;;;;;9.20;5.53;;;24.20;45.70;;;;;;4995389;28;20295;-70
2021/06/13 06:33:11;;;;;;;9.67;5.70;;;24.20;45.60;;;;;;5001455;28;20205;-70
2021/06/13 06:35:42;;;;;;;9.37;4.63;;;24.20;45.50;;;;;;4995790;28;20597;-70
2021/06/13 06:38:10;;;;;;;10.97;4.83;;;24.20;45.50;;;;;;5000829;28;20211;-71
2021/06/13 06:40:40;;;;;;;8.60;4.77;;;24.20;45.50;;;;;;4981934;28;20206;-69
2021/06/13 06:43:09;;;;;;;7.97;4.80;;;24.20;45.60;;;;;;5002237;28;20223;-68
2021/06/13 06:45:38;;;;;;;5.03;4.07;;;24.30;45.60;;;;;;4996685;28;20373;-68
2021/06/13 06:48:07;;;;;;;9.53;5.10;;;24.20;45.50;;;;;;4996849;28;20204;-68
2021/06/13 06:50:37;;;;;;;7.23;4.60;;;24.30;46.30;;;;;;4990681;28;20215;-67
2021/06/13 06:53:08;;;;;;;6.27;4.40;;;24.30;45.70;;;;;;4992204;28;20204;-66
2021/06/13 06:55:41;;;;;;;9.80;4.50;;;24.30;46.40;;;;;;4993782;28;20294;-68
2021/06/13 06:58:12;;;;;;;11.87;5.67;;;24.30;45.60;;;;;;4986566;28;20197;-68
2021/06/13 07:00:41;;;;;;;8.77;5.07;;;24.30;46.30;;;;;;4989963;28;20194;-68
2021/06/13 07:03:13;;;;;;;13.10;5.30;;;24.30;46.90;;;;;;4983035;28;20192;-68
2021/06/13 07:05:41;;;;;;;9.57;5.03;;;24.30;46.60;;;;;;4997935;28;20203;-68
2021/06/13 07:08:09;;;;;;;8.67;4.63;;;24.30;46.30;;;;;;4987308;28;20810;-68
2021/06/13 07:10:40;;;;;;;14.40;5.17;;;24.30;46.30;;;;;;4986166;28;20195;-66
2021/06/13 07:13:10;;;;;;;10.07;5.50;;;24.40;46.50;;;;;;4994519;28;20192;-67
2021/06/13 07:15:43;;;;;;;11.90;5.60;;;24.30;46.20;;;;;;4998849;28;20196;-69
2021/06/13 07:18:12;;;;;;;10.37;5.83;;;24.40;46.10;;;;;;4993700;28;20213;-71
2021/06/13 07:20:41;;;;;;;9.93;5.50;;;24.40;45.90;;;;;;4999896;28;20204;-67
2021/06/13 07:23:09;;;;;;;9.20;5.20;;;24.40;45.70;;;;;;4995662;28;20195;-67
2021/06/13 07:25:39;;;;;;;12.87;5.67;;;24.40;45.50;;;;;;5003415;28;20236;-67
2021/06/13 07:28:09;;;;;;;10.03;5.43;;;24.50;46.50;;;;;;4981938;28;20303;-67
2021/06/13 07:30:40;;;;;;;7.83;4.60;;;24.40;47.90;;;;;;4985098;28;20223;-69
2021/06/13 07:33:07;;;;;;;10.00;5.33;;;24.50;48.10;;;;;;4995778;28;20204;-69
2021/06/13 07:35:37;;;;;;;8.93;5.13;;;24.50;47.90;;;;;;4984598;28;20228;-69
2021/06/13 07:38:06;;;;;;;8.03;5.03;;;24.60;48.00;;;;;;4975048;28;20230;-69
2021/06/13 07:40:34;;;;;;;7.93;4.63;;;24.60;48.00;;;;;;4991074;28;20645;-70
2021/06/13 07:43:02;;;;;;;8.87;4.80;;;24.60;47.80;;;;;;4978907;28;20195;-69
2021/06/13 07:45:30;;;;;;;7.40;5.10;;;24.60;47.80;;;;;;5001242;28;20640;-68
2021/06/13 07:48:09;;;;;;;8.50;4.90;;;24.70;48.10;;;;;;4994366;28;20188;-69
2021/06/13 07:50:38;;;;;;;6.83;4.57;;;24.70;47.80;;;;;;4994465;28;20539;-72
2021/06/13 07:53:08;;;;;;;5.57;4.43;;;24.70;47.70;;;;;;4989924;28;20913;-68
2021/06/13 07:55:43;;;;;;;8.70;5.17;;;24.70;47.80;;;;;;4977034;28;20218;-68
2021/06/13 07:58:24;;;;;;;9.00;4.30;;;24.70;47.20;;;;;;4987761;28;20335;-69
2021/06/13 08:00:56;;;;;;;8.20;4.63;;;24.70;47.20;;;;;;4991907;28;20275;-68
2021/06/13 08:03:26;;;;;;;8.20;4.57;;;24.70;47.20;;;;;;4991154;28;20233;-68
2021/06/13 08:05:55;;;;;;;7.97;5.00;;;24.60;46.90;;;;;;4986209;28;20288;-67
2021/06/13 08:08:24;;;;;;;9.97;5.17;;;24.60;47.00;;;;;;4991594;28;20196;-68
2021/06/13 08:10:56;;;;;;;8.20;4.87;;;24.70;46.90;;;;;;4989191;28;20198;-68
2021/06/13 08:13:25;;;;;;;11.10;4.70;;;24.70;46.80;;;;;;5001165;28;20657;-67
2021/06/13 08:15:55;;;;;;;8.40;4.70;;;24.70;46.70;;;;;;4989750;28;20739;-68
2021/06/13 08:18:23;;;;;;;9.10;4.70;;;24.70;46.80;;;;;;4986797;28;20887;-67
2021/06/13 08:20:52;;;;;;;9.60;5.20;;;24.80;46.70;;;;;;4990283;28;20201;-66
2021/06/13 08:23:20;;;;;;;15.10;5.77;;;24.70;48.80;;;;;;4990890;28;20213;-66
2021/06/13 08:25:49;;;;;;;13.03;5.97;;;24.80;51.50;;;;;;4968689;28;20241;-69
2021/06/13 08:28:20;;;;;;;9.17;5.47;;;24.80;51.10;;;;;;4979686;28;20222;-68
2021/06/13 08:30:50;;;;;;;9.97;5.43;;;24.90;50.40;;;;;;4974780;28;20205;-70
2021/06/13 08:33:23;;;;;;;10.70;4.80;;;24.90;49.80;;;;;;4979875;28;20275;-67
2021/06/13 08:35:53;;;;;;;10.93;4.80;;;24.90;49.00;;;;;;4973181;28;20662;-71
2021/06/13 08:38:27;;;;;;;8.63;4.63;;;24.90;48.20;;;;;;4974632;28;20196;-71
2021/06/13 08:40:55;;;;;;;7.30;4.57;;;24.90;47.40;;;;;;4972245;28;20211;-71
2021/06/13 08:43:24;;;;;;;8.37;4.73;;;24.90;47.10;;;;;;4977150;28;20217;-71
2021/06/13 08:46:17;;;;;;;7.23;4.37;;;24.90;47.00;;;;;;4969250;28;20597;-71
2021/06/13 08:48:47;;;;;;;8.13;4.70;;;24.90;46.90;;;;;;4972251;28;20224;-70
2021/06/13 08:51:18;;;;;;;6.90;3.87;;;25.00;46.50;;;;;;4971219;28;20631;-69
2021/06/13 08:53:50;;;;;;;6.53;4.10;;;25.00;46.50;;;;;;4957876;28;21109;-69
2021/06/13 08:56:21;;;;;;;5.73;4.07;;;24.90;46.00;;;;;;4970969;28;20215;-69
2021/06/13 08:58:52;;;;;;;9.63;4.33;;;25.00;46.10;;;;;;4951922;28;20246;-67
2021/06/13 09:01:23;;;;;;;7.97;3.90;;;25.00;46.10;;;;;;4963203;28;20719;-70
2021/06/13 09:03:54;;;;;;;7.17;4.20;;;25.00;46.30;;;;;;4968924;28;20205;-70
2021/06/13 09:06:21;;;;;;;8.03;4.03;;;25.00;46.30;;;;;;4971005;28;20525;-67
2021/06/13 09:08:51;;;;;;;6.43;4.27;;;25.00;46.10;;;;;;4955330;28;20204;-68
2021/06/13 09:11:31;;;;;;;10.60;4.30;;;25.00;46.40;;;;;;4973872;28;20189;-70
2021/06/13 09:14:14;;;;;;;6.30;4.13;;;25.10;46.10;;;;;;4975419;28;20235;-69
2021/06/13 09:16:47;;;;;;;6.27;3.90;;;25.10;46.10;;;;;;4974206;28;20221;-69
2021/06/13 09:19:17;;;;;;;9.70;4.40;;;25.00;45.20;;;;;;4978031;28;20202;-69
2021/06/13 09:21:47;;;;;;;5.23;4.30;;;25.00;44.70;;;;;;4985183;28;20201;-70
2021/06/13 09:24:23;;;;;;;6.50;4.20;;;25.00;44.70;;;;;;4977871;28;20224;-69
2021/06/13 09:27:09;;;;;;;5.87;3.90;;;25.00;44.50;;;;;;4986747;28;20773;-66
2021/06/13 09:29:52;;;;;;;8.93;4.23;;;24.90;45.10;;;;;;4982595;28;20787;-66
2021/06/13 09:32:19;;;;;;;8.10;3.90;;;24.90;44.70;;;;;;4975635;28;20276;-69
2021/06/13 09:35:09;;;;;;;7.90;4.17;;;24.90;44.90;;;;;;4977431;28;20199;-69
2021/06/13 09:38:07;;;;;;;5.73;4.20;;;24.90;44.70;;;;;;4977736;28;20229;-66
2021/06/13 09:40:38;;;;;;;8.03;4.53;;;24.90;44.00;;;;;;4962357;28;20197;-66
2021/06/13 09:43:35;;;;;;;7.43;4.27;;;24.90;45.00;;;;;;4955309;28;20217;-66
2021/06/13 09:46:27;;;;;;;9.90;4.57;;;24.90;45.30;;;;;;4959345;28;20219;-68
2021/06/13 09:49:10;;;;;;;5.90;4.20;;;24.90;45.10;;;;;;4981330;28;20209;-68
2021/06/13 09:51:53;;;;;;;7.77;4.43;;;24.90;45.00;;;;;;4973625;28;20535;-69
2021/06/13 09:54:27;;;;;;;9.07;3.97;;;24.80;44.50;;;;;;4984418;28;20236;-69
2021/06/13 09:57:03;;;;;;;9.37;4.73;;;24.80;44.50;;;;;;4961421;28;20602;-66
2021/06/13 09:59:34;;;;;;;8.00;4.03;;;24.80;44.60;;;;;;4971302;28;20207;-66
2021/06/13 10:02:06;;;;;;;7.53;4.03;;;24.80;44.60;;;;;;4975225;28;20288;-67
2021/06/13 10:04:42;;;;;;;6.30;4.00;;;24.80;44.70;;;;;;4957681;28;20193;-67
2021/06/13 10:07:20;;;;;;;9.90;4.50;;;24.80;45.10;;;;;;4974165;28;20583;-67
2021/06/13 10:09:52;;;;;;;6.90;4.20;;;24.80;44.50;;;;;;4971767;28;20561;-66
2021/06/13 10:12:24;;;;;;;8.33;4.50;;;24.80;44.60;;;;;;4956556;28;20189;-66
2021/06/13 10:14:54;;;;;;;9.13;4.50;;;24.80;45.20;;;;;;4973840;28;20540;-66
2021/06/13 10:17:39;;;;;;;7.80;4.07;;;24.80;45.50;;;;;;4973032;28;20217;-69
2021/06/13 10:20:08;;;;;;;7.50;4.30;;;24.80;45.20;;;;;;4974828;28;20560;-69
2021/06/13 10:22:43;;;;;;;8.30;4.97;;;24.80;45.60;;;;;;4973692;28;20270;-69
2021/06/13 10:25:17;;;;;;;7.33;5.00;;;24.80;45.00;;;;;;4984483;28;20229;-67
2021/06/13 10:27:49;;;;;;;6.80;4.10;;;24.90;45.50;;;;;;5003561;28;20207;-68
2021/06/13 10:30:19;;;;;;;24.57;5.60;;;24.80;45.80;;;;;;4977037;28;20208;-68
2021/06/13 10:32:52;;;;;;;14.27;5.13;;;24.90;46.60;;;;;;4999543;28;20219;-69
2021/06/13 10:35:22;;;;;;;9.13;5.00;;;24.90;46.60;;;;;;4995535;28;20220;-69
2021/06/13 10:37:50;;;;;;;9.50;5.20;;;24.90;46.20;;;;;;5001487;28;20278;-69
2021/06/13 10:40:20;;;;;;;8.77;4.43;;;24.90;45.80;;;;;;4977928;28;20256;-70
2021/06/13 10:42:52;;;;;;;7.93;4.73;;;24.90;45.90;;;;;;4992987;28;20676;-70
2021/06/13 10:45:31;;;;;;;5.80;4.03;;;25.00;45.80;;;;;;4997394;28;20201;-70
2021/06/13 10:48:07;;;;;;;8.27;4.80;;;25.00;45.80;;;;;;4997770;28;20234;-68
2021/06/13 10:50:41;;;;;;;10.07;4.70;;;25.00;45.90;;;;;;4997224;28;20192;-68
2021/06/13 10:53:11;;;;;;;8.53;4.77;;;25.10;45.40;;;;;;5000762;28;20215;-68
2021/06/13 10:55:53;;;;;;;8.20;5.00;;;25.10;44.20;;;;;;4968499;28;20228;-69
2021/06/13 10:58:56;;;;;;;6.63;4.60;;;25.20;44.50;;;;;;4989707;28;20235;-70
2021/06/13 11:01:38;;;;;;;9.40;4.53;;;25.20;45.30;;;;;;4979617;28;20227;-70
2021/06/13 11:04:07;;;;;;;8.67;4.47;;;25.20;45.40;;;;;;4992984;28;20243;-70
2021/06/13 11:06:44;;;;;;;6.67;4.57;;;25.20;44.50;;;;;;4990470;28;20189;-68
2021/06/13 11:09:18;;;;;;;7.97;4.30;;;25.20;44.70;;;;;;4991815;28;20192;-68
2021/06/13 11:11:55;;;;;;;19.23;5.33;;;25.20;44.70;;;;;;4996834;28;20196;-68
2021/06/13 11:14:31;;;;;;;9.87;4.03;;;25.30;44.50;;;;;;4994148;28;20203;-69
2021/06/13 11:17:00;;;;;;;10.67;4.57;;;25.30;45.00;;;;;;4992581;28;20203;-66
2021/06/13 11:19:32;;;;;;;9.90;4.50;;;25.30;44.90;;;;;;4991762;28;20216;-66
2021/06/13 11:22:21;;;;;;;7.30;4.40;;;25.40;44.80;;;;;;4997595;28;20201;-66
2021/06/13 11:24:52;;;;;;;8.47;3.53;;;25.40;45.00;;;;;;4988519;28;20224;-66
2021/06/13 11:27:20;;;;;;;9.33;3.97;;;25.50;43.90;;;;;;4983840;28;20212;-65
2021/06/13 11:29:58;;;;;;;8.20;3.90;;;25.50;44.60;;;;;;4989680;28;20254;-65
2021/06/13 11:32:56;;;;;;;7.67;3.77;;;25.50;44.30;;;;;;4974905;28;20212;-68
2021/06/13 11:35:32;;;;;;;9.03;4.30;;;25.50;44.30;;;;;;4985505;28;20216;-66
2021/06/13 11:38:07;;;;;;;6.57;4.47;;;25.60;44.20;;;;;;4986764;28;20251;-65
2021/06/13 11:40:37;;;;;;;9.27;4.73;;;25.60;43.20;;;;;;4993378;28;20207;-66
2021/06/13 11:43:12;;;;;;;9.33;4.70;;;25.70;42.30;;;;;;4994682;28;20204;-65
2021/06/13 11:45:51;;;;;;;6.10;4.77;;;25.70;42.30;;;;;;4989964;28;20203;-65
2021/06/13 11:48:27;;;;;;;6.37;4.30;;;25.70;45.00;;;;;;4989257;28;20585;-67
2021/06/13 11:51:08;;;;;;;6.03;4.47;;;25.70;44.10;;;;;;4989657;28;20203;-69
2021/06/13 11:54:04;;;;;;;7.93;4.67;;;25.90;43.30;;;;;;4982317;28;20224;-67
2021/06/13 11:56:43;;;;;;;7.53;4.17;;;25.90;44.40;;;;;;4993252;28;20287;-69
2021/06/13 11:59:23;;;;;;;8.83;4.63;;;26.00;41.90;;;;;;4963668;28;20223;-70
2021/06/13 12:01:57;;;;;;;8.37;4.53;;;26.00;44.00;;;;;;4960176;28;20835;-67
2021/06/13 12:04:29;;;;;;;6.63;3.87;;;26.00;44.10;;;;;;4936532;28;20290;-68
2021/06/13 12:07:08;;;;;;;7.77;4.27;;;26.10;44.40;;;;;;4984135;28;20212;-69
2021/06/13 12:09:43;;;;;;;4.77;3.90;;;26.10;44.10;;;;;;4985412;28;20629;-69
2021/06/13 12:12:13;;;;;;;5.30;3.80;;;26.00;42.90;;;;;;4987990;28;20238;-68
2021/06/13 12:14:50;;;;;;;5.67;4.13;;;26.10;43.40;;;;;;5000837;28;20214;-67
2021/06/13 12:17:22;;;;;;;5.97;3.80;;;26.10;43.40;;;;;;4973918;28;20665;-65
2021/06/13 12:20:05;;;;;;;7.87;4.20;;;26.10;43.30;;;;;;4988609;28;20197;-68
2021/06/13 12:23:18;;;;;;;7.57;3.83;;;26.10;42.10;;;;;;4987674;28;20219;-70
2021/06/13 12:28:46;;;;;;;7.13;3.50;;;26.20;43.50;;;;;;4997248;28;20552;-70
2021/06/13 12:31:16;;;;;;;4.23;3.10;;;26.30;44.40;;;;;;4997418;28;20212;-72
2021/06/13 12:33:46;;;;;;;5.03;3.10;;;26.30;45.00;;;;;;4982794;28;20215;-69
2021/06/13 12:36:14;;;;;;;7.57;3.70;;;26.40;44.40;;;;;;4994093;28;20291;-71
2021/06/13 12:38:45;;;;;;;9.20;3.87;;;26.40;41.90;;;;;;4984744;28;20216;-69
2021/06/13 12:41:21;;;;;;;8.27;3.70;;;26.50;40.70;;;;;;4987503;28;20212;-69
2021/06/13 12:43:56;;;;;;;5.57;3.03;;;26.50;39.40;;;;;;4990885;28;20192;-72
2021/06/13 12:46:37;;;;;;;7.13;3.80;;;26.60;40.10;;;;;;4989030;28;20204;-72
2021/06/13 12:49:06;;;;;;;10.30;3.60;;;26.60;40.90;;;;;;5008000;28;20207;-69
2021/06/13 12:51:36;;;;;;;4.83;3.23;;;26.60;41.50;;;;;;4990615;28;20219;-68
2021/06/13 12:54:14;;;;;;;5.13;3.17;;;26.70;39.40;;;;;;4988899;28;20203;-69
2021/06/13 12:56:47;;;;;;;7.17;3.30;;;26.80;40.20;;;;;;4989494;28;20188;-70
2021/06/13 12:59:16;;;;;;;5.27;3.03;;;26.80;39.70;;;;;;4990425;28;20564;-70
2021/06/13 13:01:43;;;;;;;8.57;4.00;;;26.80;40.60;;;;;;4991380;28;20212;-69
2021/06/13 13:04:12;;;;;;;7.27;4.03;;;26.80;42.10;;;;;;4989315;28;20228;-68
2021/06/13 13:06:50;;;;;;;7.60;3.97;;;26.80;39.80;;;;;;4983898;28;20548;-66
2021/06/13 13:09:21;;;;;;;10.10;4.03;;;26.90;42.00;;;;;;4972029;28;20211;-66
2021/06/13 13:11:51;;;;;;;8.07;3.43;;;26.80;40.20;;;;;;4970039;28;20199;-68
2021/06/13 13:14:22;;;;;;;5.90;3.57;;;26.90;41.30;;;;;;4986181;28;20223;-69
2021/06/13 13:16:53;;;;;;;5.83;3.30;;;26.90;41.90;;;;;;4999142;28;20219;-68
2021/06/13 13:19:31;;;;;;;6.83;3.43;;;26.90;42.80;;;;;;4984557;28;20311;-69
2021/06/13 13:22:19;;;;;;;9.10;3.20;;;26.90;42.30;;;;;;4989686;28;20209;-68